sensor_id;sensor_type;location;lat;lon;timestamp;P1;durP1;ratioP1;P2;durP2;ratioP2
26261;SDS011;13988;52.446;13.280;2023-06-19T00:01:43;5.72;;;4.68;;
26261;SDS011;13988;52.446;13.280;2023-06-19T00:04:09;8.05;;;6.15;;
26261;SDS011;13988;52.446;13.280;2023-06-19T00:06:35;6.15;;;4.88;;
26261;SDS011;13988;52.446;13.280;2023-06-19T00:09:01;8.15;;;4.80;;
26261;SDS011;13988;52.446;13.280;2023-06-19T00:11:27;5.38;;;4.82;;
26261;SDS011;13988;52.446;13.280;2023-06-19T00:13:53;4.82;;;4.25;;
26261;SDS011;13988;52.446;13.280;2023-06-19T00:16:18;5.85;;;4.88;;
26261;SDS011;13988;52.446;13.280;2023-06-19T00:18:44;5.60;;;4.68;;
26261;SDS011;13988;52.446;13.280;2023-06-19T00:21:10;9.25;;;6.47;;
26261;SDS011;13988;52.446;13.280;2023-06-19T00:23:36;6.72;;;5.10;;
26261;SDS011;13988;52.446;13.280;2023-06-19T00:26:02;6.75;;;4.90;;
26261;SDS011;13988;52.446;13.280;2023-06-19T00:28:31;5.25;;;4.43;;
26261;SDS011;13988;52.446;13.280;2023-06-19T00:30:57;5.93;;;4.63;;
26261;SDS011;13988;52.446;13.280;2023-06-19T00:33:23;6.13;;;4.78;;
26261;SDS011;13988;52.446;13.280;2023-06-19T00:35:49;7.13;;;5.22;;
26261;SDS011;13988;52.446;13.280;2023-06-19T00:38:16;5.20;;;4.55;;
26261;SDS011;13988;52.446;13.280;2023-06-19T00:40:41;6.82;;;5.82;;
26261;SDS011;13988;52.446;13.280;2023-06-19T00:43:07;6.85;;;5.30;;
26261;SDS011;13988;52.446;13.280;2023-06-19T00:45:33;7.43;;;4.90;;
26261;SDS011;13988;52.446;13.280;2023-06-19T00:47:59;6.97;;;5.15;;
26261;SDS011;13988;52.446;13.280;2023-06-19T00:50:25;7.43;;;4.63;;
26261;SDS011;13988;52.446;13.280;2023-06-19T00:52:56;4.80;;;4.30;;
26261;SDS011;13988;52.446;13.280;2023-06-19T00:55:22;5.55;;;4.97;;
26261;SDS011;13988;52.446;13.280;2023-06-19T00:57:53;7.15;;;5.18;;
26261;SDS011;13988;52.446;13.280;2023-06-19T01:00:19;5.03;;;4.47;;
26261;SDS011;13988;52.446;13.280;2023-06-19T01:02:46;6.35;;;4.70;;
26261;SDS011;13988;52.446;13.280;2023-06-19T01:05:12;6.53;;;5.55;;
26261;SDS011;13988;52.446;13.280;2023-06-19T01:07:47;6.75;;;4.97;;
26261;SDS011;13988;52.446;13.280;2023-06-19T01:10:28;5.53;;;4.63;;
26261;SDS011;13988;52.446;13.280;2023-06-19T01:12:58;5.50;;;4.78;;
26261;SDS011;13988;52.446;13.280;2023-06-19T01:15:55;6.05;;;5.35;;
26261;SDS011;13988;52.446;13.280;2023-06-19T01:18:21;5.43;;;4.90;;
26261;SDS011;13988;52.446;13.280;2023-06-19T01:20:48;5.60;;;4.75;;
26261;SDS011;13988;52.446;13.280;2023-06-19T01:23:14;7.30;;;4.78;;
26261;SDS011;13988;52.446;13.280;2023-06-19T01:25:40;5.90;;;4.90;;
26261;SDS011;13988;52.446;13.280;2023-06-19T01:28:06;6.22;;;5.15;;
26261;SDS011;13988;52.446;13.280;2023-06-19T01:30:35;6.15;;;5.05;;
26261;SDS011;13988;52.446;13.280;2023-06-19T01:33:09;7.13;;;4.68;;
26261;SDS011;13988;52.446;13.280;2023-06-19T01:35:51;7.13;;;5.10;;
26261;SDS011;13988;52.446;13.280;2023-06-19T01:38:18;7.82;;;4.95;;
26261;SDS011;13988;52.446;13.280;2023-06-19T01:40:46;7.75;;;5.03;;
26261;SDS011;13988;52.446;13.280;2023-06-19T01:43:13;6.03;;;5.20;;
26261;SDS011;13988;52.446;13.280;2023-06-19T01:45:40;6.20;;;4.60;;
26261;SDS011;13988;52.446;13.280;2023-06-19T01:48:07;7.22;;;4.82;;
26261;SDS011;13988;52.446;13.280;2023-06-19T01:50:33;6.03;;;5.30;;
26261;SDS011;13988;52.446;13.280;2023-06-19T01:52:59;7.78;;;4.75;;
26261;SDS011;13988;52.446;13.280;2023-06-19T01:55:24;6.25;;;4.78;;
26261;SDS011;13988;52.446;13.280;2023-06-19T01:57:50;6.13;;;5.30;;
26261;SDS011;13988;52.446;13.280;2023-06-19T02:00:16;6.55;;;4.88;;
26261;SDS011;13988;52.446;13.280;2023-06-19T02:02:42;5.30;;;4.45;;
26261;SDS011;13988;52.446;13.280;2023-06-19T02:05:08;7.05;;;4.53;;
26261;SDS011;13988;52.446;13.280;2023-06-19T02:07:34;6.82;;;5.35;;
26261;SDS011;13988;52.446;13.280;2023-06-19T02:10:00;5.72;;;5.03;;
26261;SDS011;13988;52.446;13.280;2023-06-19T02:12:26;7.13;;;5.75;;
26261;SDS011;13988;52.446;13.280;2023-06-19T02:14:51;6.88;;;5.38;;
26261;SDS011;13988;52.446;13.280;2023-06-19T02:17:17;5.32;;;4.22;;
26261;SDS011;13988;52.446;13.280;2023-06-19T02:19:43;6.63;;;5.10;;
26261;SDS011;13988;52.446;13.280;2023-06-19T02:22:08;7.55;;;5.57;;
26261;SDS011;13988;52.446;13.280;2023-06-19T02:24:34;5.70;;;5.10;;
26261;SDS011;13988;52.446;13.280;2023-06-19T02:27:00;6.82;;;5.15;;
26261;SDS011;13988;52.446;13.280;2023-06-19T02:29:27;6.10;;;5.50;;
26261;SDS011;13988;52.446;13.280;2023-06-19T02:31:54;8.18;;;5.53;;
26261;SDS011;13988;52.446;13.280;2023-06-19T02:34:20;8.05;;;6.47;;
26261;SDS011;13988;52.446;13.280;2023-06-19T02:36:49;7.38;;;4.72;;
26261;SDS011;13988;52.446;13.280;2023-06-19T02:39:14;7.35;;;5.53;;
26261;SDS011;13988;52.446;13.280;2023-06-19T02:41:40;5.72;;;5.05;;
26261;SDS011;13988;52.446;13.280;2023-06-19T02:44:10;7.50;;;5.30;;
26261;SDS011;13988;52.446;13.280;2023-06-19T02:46:36;8.02;;;6.07;;
26261;SDS011;13988;52.446;13.280;2023-06-19T02:49:02;7.07;;;6.20;;
26261;SDS011;13988;52.446;13.280;2023-06-19T02:51:27;9.15;;;6.00;;
26261;SDS011;13988;52.446;13.280;2023-06-19T02:53:53;6.97;;;5.53;;
26261;SDS011;13988;52.446;13.280;2023-06-19T02:56:19;7.93;;;5.78;;
26261;SDS011;13988;52.446;13.280;2023-06-19T02:58:44;7.97;;;4.93;;
26261;SDS011;13988;52.446;13.280;2023-06-19T03:01:10;6.90;;;6.05;;
26261;SDS011;13988;52.446;13.280;2023-06-19T03:03:35;8.18;;;5.90;;
26261;SDS011;13988;52.446;13.280;2023-06-19T03:06:05;7.63;;;6.15;;
26261;SDS011;13988;52.446;13.280;2023-06-19T03:08:35;7.25;;;5.68;;
26261;SDS011;13988;52.446;13.280;2023-06-19T03:11:01;6.45;;;5.78;;
26261;SDS011;13988;52.446;13.280;2023-06-19T03:13:29;6.95;;;5.80;;
26261;SDS011;13988;52.446;13.280;2023-06-19T03:15:57;7.15;;;5.90;;
26261;SDS011;13988;52.446;13.280;2023-06-19T03:18:22;6.95;;;5.68;;
26261;SDS011;13988;52.446;13.280;2023-06-19T03:20:48;7.63;;;6.05;;
26261;SDS011;13988;52.446;13.280;2023-06-19T03:23:14;8.75;;;7.03;;
26261;SDS011;13988;52.446;13.280;2023-06-19T03:25:39;6.68;;;5.97;;
26261;SDS011;13988;52.446;13.280;2023-06-19T03:28:07;8.98;;;5.82;;
26261;SDS011;13988;52.446;13.280;2023-06-19T03:30:33;7.20;;;6.43;;
26261;SDS011;13988;52.446;13.280;2023-06-19T03:32:59;6.60;;;5.68;;
26261;SDS011;13988;52.446;13.280;2023-06-19T03:35:24;8.20;;;6.22;;
26261;SDS011;13988;52.446;13.280;2023-06-19T03:37:50;7.68;;;6.00;;
26261;SDS011;13988;52.446;13.280;2023-06-19T03:40:16;6.70;;;5.82;;
26261;SDS011;13988;52.446;13.280;2023-06-19T03:42:41;8.07;;;6.05;;
26261;SDS011;13988;52.446;13.280;2023-06-19T03:45:07;7.75;;;6.75;;
26261;SDS011;13988;52.446;13.280;2023-06-19T03:47:33;8.43;;;6.57;;
26261;SDS011;13988;52.446;13.280;2023-06-19T03:49:58;7.43;;;6.22;;
26261;SDS011;13988;52.446;13.280;2023-06-19T03:52:24;8.45;;;6.47;;
26261;SDS011;13988;52.446;13.280;2023-06-19T03:54:50;8.48;;;5.45;;
26261;SDS011;13988;52.446;13.280;2023-06-19T03:57:15;9.95;;;6.50;;
26261;SDS011;13988;52.446;13.280;2023-06-19T03:59:41;9.40;;;6.20;;
26261;SDS011;13988;52.446;13.280;2023-06-19T04:02:06;8.43;;;5.60;;
26261;SDS011;13988;52.446;13.280;2023-06-19T04:04:32;7.22;;;6.45;;
26261;SDS011;13988;52.446;13.280;2023-06-19T04:06:58;6.95;;;5.80;;
26261;SDS011;13988;52.446;13.280;2023-06-19T04:09:24;9.27;;;6.50;;
26261;SDS011;13988;52.446;13.280;2023-06-19T04:11:50;7.95;;;6.63;;
26261;SDS011;13988;52.446;13.280;2023-06-19T04:14:15;10.00;;;6.90;;
26261;SDS011;13988;52.446;13.280;2023-06-19T04:16:41;9.40;;;7.15;;
26261;SDS011;13988;52.446;13.280;2023-06-19T04:19:07;9.35;;;7.10;;
26261;SDS011;13988;52.446;13.280;2023-06-19T04:21:32;7.55;;;5.78;;
26261;SDS011;13988;52.446;13.280;2023-06-19T04:23:58;6.80;;;5.93;;
26261;SDS011;13988;52.446;13.280;2023-06-19T04:26:24;8.60;;;6.68;;
26261;SDS011;13988;52.446;13.280;2023-06-19T04:28:50;7.97;;;6.07;;
26261;SDS011;13988;52.446;13.280;2023-06-19T04:31:15;8.07;;;6.22;;
26261;SDS011;13988;52.446;13.280;2023-06-19T04:33:43;9.15;;;6.32;;
26261;SDS011;13988;52.446;13.280;2023-06-19T04:36:10;10.05;;;6.80;;
26261;SDS011;13988;52.446;13.280;2023-06-19T04:38:35;12.57;;;6.53;;
26261;SDS011;13988;52.446;13.280;2023-06-19T04:41:01;8.02;;;6.28;;
26261;SDS011;13988;52.446;13.280;2023-06-19T04:43:26;9.32;;;6.18;;
26261;SDS011;13988;52.446;13.280;2023-06-19T04:45:52;7.65;;;6.70;;
26261;SDS011;13988;52.446;13.280;2023-06-19T04:48:18;8.55;;;6.72;;
26261;SDS011;13988;52.446;13.280;2023-06-19T04:50:44;8.88;;;7.50;;
26261;SDS011;13988;52.446;13.280;2023-06-19T04:53:09;11.32;;;7.10;;
26261;SDS011;13988;52.446;13.280;2023-06-19T04:55:35;7.68;;;6.88;;
26261;SDS011;13988;52.446;13.280;2023-06-19T04:58:00;8.52;;;6.25;;
26261;SDS011;13988;52.446;13.280;2023-06-19T05:00:26;9.55;;;6.30;;
26261;SDS011;13988;52.446;13.280;2023-06-19T05:02:52;9.77;;;6.40;;
26261;SDS011;13988;52.446;13.280;2023-06-19T05:05:17;7.43;;;6.63;;
26261;SDS011;13988;52.446;13.280;2023-06-19T05:07:44;7.78;;;6.20;;
26261;SDS011;13988;52.446;13.280;2023-06-19T05:10:10;9.50;;;6.80;;
26261;SDS011;13988;52.446;13.280;2023-06-19T05:12:36;8.57;;;6.50;;
26261;SDS011;13988;52.446;13.280;2023-06-19T05:15:01;8.52;;;6.38;;
26261;SDS011;13988;52.446;13.280;2023-06-19T05:17:27;9.52;;;7.22;;
26261;SDS011;13988;52.446;13.280;2023-06-19T05:19:53;8.60;;;6.22;;
26261;SDS011;13988;52.446;13.280;2023-06-19T05:22:19;6.60;;;5.70;;
26261;SDS011;13988;52.446;13.280;2023-06-19T05:24:46;7.80;;;6.93;;
26261;SDS011;13988;52.446;13.280;2023-06-19T05:27:12;8.40;;;6.50;;
26261;SDS011;13988;52.446;13.280;2023-06-19T05:29:38;9.10;;;6.68;;
26261;SDS011;13988;52.446;13.280;2023-06-19T05:32:03;11.07;;;6.25;;
26261;SDS011;13988;52.446;13.280;2023-06-19T05:34:29;9.43;;;6.50;;
26261;SDS011;13988;52.446;13.280;2023-06-19T05:36:55;8.15;;;5.88;;
26261;SDS011;13988;52.446;13.280;2023-06-19T05:39:20;7.88;;;6.82;;
26261;SDS011;13988;52.446;13.280;2023-06-19T05:41:46;9.23;;;6.35;;
26261;SDS011;13988;52.446;13.280;2023-06-19T05:44:12;8.48;;;6.45;;
26261;SDS011;13988;52.446;13.280;2023-06-19T05:46:41;9.10;;;6.43;;
26261;SDS011;13988;52.446;13.280;2023-06-19T05:49:06;8.82;;;7.93;;
26261;SDS011;13988;52.446;13.280;2023-06-19T05:51:32;8.43;;;6.75;;
26261;SDS011;13988;52.446;13.280;2023-06-19T05:53:58;7.45;;;6.60;;
26261;SDS011;13988;52.446;13.280;2023-06-19T05:56:28;7.57;;;6.50;;
26261;SDS011;13988;52.446;13.280;2023-06-19T05:59:01;9.45;;;6.95;;
26261;SDS011;13988;52.446;13.280;2023-06-19T06:01:27;8.70;;;6.57;;
26261;SDS011;13988;52.446;13.280;2023-06-19T06:03:54;9.18;;;6.78;;
26261;SDS011;13988;52.446;13.280;2023-06-19T06:06:20;7.72;;;6.40;;
26261;SDS011;13988;52.446;13.280;2023-06-19T06:08:47;7.28;;;6.15;;
26261;SDS011;13988;52.446;13.280;2023-06-19T06:11:13;7.55;;;6.45;;
26261;SDS011;13988;52.446;13.280;2023-06-19T06:13:39;8.65;;;6.70;;
26261;SDS011;13988;52.446;13.280;2023-06-19T06:16:04;10.55;;;7.30;;
26261;SDS011;13988;52.446;13.280;2023-06-19T06:18:30;9.00;;;7.53;;
26261;SDS011;13988;52.446;13.280;2023-06-19T06:20:56;10.93;;;7.13;;
26261;SDS011;13988;52.446;13.280;2023-06-19T06:23:24;7.72;;;6.30;;
26261;SDS011;13988;52.446;13.280;2023-06-19T06:25:49;7.70;;;6.85;;
26261;SDS011;13988;52.446;13.280;2023-06-19T06:28:15;8.48;;;6.50;;
26261;SDS011;13988;52.446;13.280;2023-06-19T06:30:41;7.38;;;6.68;;
26261;SDS011;13988;52.446;13.280;2023-06-19T06:33:07;8.20;;;6.32;;
26261;SDS011;13988;52.446;13.280;2023-06-19T06:35:32;7.35;;;6.15;;
26261;SDS011;13988;52.446;13.280;2023-06-19T06:38:00;10.52;;;7.32;;
26261;SDS011;13988;52.446;13.280;2023-06-19T06:40:26;7.85;;;6.07;;
26261;SDS011;13988;52.446;13.280;2023-06-19T06:42:52;6.28;;;5.65;;
26261;SDS011;13988;52.446;13.280;2023-06-19T06:45:18;7.88;;;6.50;;
26261;SDS011;13988;52.446;13.280;2023-06-19T06:47:44;7.93;;;5.85;;
26261;SDS011;13988;52.446;13.280;2023-06-19T06:50:10;7.78;;;6.38;;
26261;SDS011;13988;52.446;13.280;2023-06-19T06:52:36;10.35;;;7.00;;
26261;SDS011;13988;52.446;13.280;2023-06-19T06:55:02;7.85;;;6.03;;
26261;SDS011;13988;52.446;13.280;2023-06-19T06:57:28;9.98;;;6.57;;
26261;SDS011;13988;52.446;13.280;2023-06-19T06:59:54;8.90;;;6.50;;
26261;SDS011;13988;52.446;13.280;2023-06-19T07:02:20;9.20;;;6.05;;
26261;SDS011;13988;52.446;13.280;2023-06-19T07:04:45;6.72;;;5.95;;
26261;SDS011;13988;52.446;13.280;2023-06-19T07:07:11;8.00;;;6.88;;
26261;SDS011;13988;52.446;13.280;2023-06-19T07:09:37;8.95;;;6.70;;
26261;SDS011;13988;52.446;13.280;2023-06-19T07:12:02;8.15;;;5.65;;
26261;SDS011;13988;52.446;13.280;2023-06-19T07:14:30;9.00;;;6.82;;
26261;SDS011;13988;52.446;13.280;2023-06-19T07:16:55;8.63;;;6.85;;
26261;SDS011;13988;52.446;13.280;2023-06-19T07:19:21;9.10;;;6.85;;
26261;SDS011;13988;52.446;13.280;2023-06-19T07:21:47;6.72;;;5.85;;
26261;SDS011;13988;52.446;13.280;2023-06-19T07:24:17;7.35;;;6.15;;
26261;SDS011;13988;52.446;13.280;2023-06-19T07:26:45;9.45;;;6.82;;
26261;SDS011;13988;52.446;13.280;2023-06-19T07:29:11;7.55;;;6.45;;
26261;SDS011;13988;52.446;13.280;2023-06-19T07:31:36;10.98;;;7.55;;
26261;SDS011;13988;52.446;13.280;2023-06-19T07:34:02;7.57;;;6.13;;
26261;SDS011;13988;52.446;13.280;2023-06-19T07:36:28;7.43;;;6.63;;
26261;SDS011;13988;52.446;13.280;2023-06-19T07:38:54;7.13;;;5.72;;
26261;SDS011;13988;52.446;13.280;2023-06-19T07:41:20;7.30;;;5.75;;
26261;SDS011;13988;52.446;13.280;2023-06-19T07:43:46;7.00;;;5.43;;
26261;SDS011;13988;52.446;13.280;2023-06-19T07:46:11;8.50;;;7.07;;
26261;SDS011;13988;52.446;13.280;2023-06-19T07:48:37;6.85;;;5.95;;
26261;SDS011;13988;52.446;13.280;2023-06-19T07:51:02;8.00;;;5.43;;
26261;SDS011;13988;52.446;13.280;2023-06-19T07:53:28;7.43;;;6.40;;
26261;SDS011;13988;52.446;13.280;2023-06-19T07:55:54;7.03;;;5.80;;
26261;SDS011;13988;52.446;13.280;2023-06-19T07:58:19;7.60;;;6.38;;
26261;SDS011;13988;52.446;13.280;2023-06-19T08:00:45;6.80;;;6.10;;
26261;SDS011;13988;52.446;13.280;2023-06-19T08:03:10;6.63;;;5.95;;
26261;SDS011;13988;52.446;13.280;2023-06-19T08:05:36;7.72;;;5.80;;
26261;SDS011;13988;52.446;13.280;2023-06-19T08:08:01;6.93;;;5.50;;
26261;SDS011;13988;52.446;13.280;2023-06-19T08:10:27;6.60;;;5.75;;
26261;SDS011;13988;52.446;13.280;2023-06-19T08:12:53;7.95;;;5.43;;
26261;SDS011;13988;52.446;13.280;2023-06-19T08:15:18;7.05;;;5.47;;
26261;SDS011;13988;52.446;13.280;2023-06-19T08:17:44;7.00;;;5.95;;
26261;SDS011;13988;52.446;13.280;2023-06-19T08:20:10;6.85;;;5.90;;
26261;SDS011;13988;52.446;13.280;2023-06-19T08:22:36;5.88;;;5.28;;
26261;SDS011;13988;52.446;13.280;2023-06-19T08:25:02;7.35;;;5.20;;
26261;SDS011;13988;52.446;13.280;2023-06-19T08:27:28;6.72;;;5.20;;
26261;SDS011;13988;52.446;13.280;2023-06-19T08:29:54;5.45;;;4.95;;
26261;SDS011;13988;52.446;13.280;2023-06-19T08:32:20;6.90;;;5.97;;
26261;SDS011;13988;52.446;13.280;2023-06-19T08:34:45;6.88;;;6.05;;
26261;SDS011;13988;52.446;13.280;2023-06-19T08:37:11;8.20;;;5.63;;
26261;SDS011;13988;52.446;13.280;2023-06-19T08:39:37;5.60;;;4.88;;
26261;SDS011;13988;52.446;13.280;2023-06-19T08:42:07;8.27;;;5.72;;
26261;SDS011;13988;52.446;13.280;2023-06-19T08:44:34;6.80;;;5.40;;
26261;SDS011;13988;52.446;13.280;2023-06-19T08:47:01;7.05;;;6.35;;
26261;SDS011;13988;52.446;13.280;2023-06-19T08:49:31;6.25;;;5.25;;
26261;SDS011;13988;52.446;13.280;2023-06-19T08:52:01;8.48;;;5.63;;
26261;SDS011;13988;52.446;13.280;2023-06-19T08:54:27;8.57;;;6.15;;
26261;SDS011;13988;52.446;13.280;2023-06-19T08:56:52;7.00;;;5.63;;
26261;SDS011;13988;52.446;13.280;2023-06-19T08:59:21;6.60;;;5.80;;
26261;SDS011;13988;52.446;13.280;2023-06-19T09:01:50;11.27;;;5.88;;
26261;SDS011;13988;52.446;13.280;2023-06-19T09:04:23;6.68;;;5.93;;
26261;SDS011;13988;52.446;13.280;2023-06-19T09:06:57;6.33;;;5.53;;
26261;SDS011;13988;52.446;13.280;2023-06-19T09:09:28;6.53;;;5.63;;
26261;SDS011;13988;52.446;13.280;2023-06-19T09:11:56;6.03;;;5.35;;
26261;SDS011;13988;52.446;13.280;2023-06-19T09:17:03;8.43;;;6.28;;
26261;SDS011;13988;52.446;13.280;2023-06-19T09:19:29;8.18;;;5.93;;
26261;SDS011;13988;52.446;13.280;2023-06-19T09:22:05;6.80;;;5.72;;
26261;SDS011;13988;52.446;13.280;2023-06-19T09:24:38;7.18;;;6.15;;
26261;SDS011;13988;52.446;13.280;2023-06-19T09:27:09;10.05;;;5.25;;
26261;SDS011;13988;52.446;13.280;2023-06-19T09:29:42;7.63;;;6.82;;
26261;SDS011;13988;52.446;13.280;2023-06-19T09:34:43;6.22;;;5.63;;
26261;SDS011;13988;52.446;13.280;2023-06-19T09:37:09;7.10;;;6.30;;
26261;SDS011;13988;52.446;13.280;2023-06-19T09:39:38;9.52;;;6.30;;
26261;SDS011;13988;52.446;13.280;2023-06-19T09:42:08;8.70;;;6.78;;
26261;SDS011;13988;52.446;13.280;2023-06-19T09:44:41;7.47;;;6.78;;
26261;SDS011;13988;52.446;13.280;2023-06-19T09:47:21;8.07;;;6.95;;
26261;SDS011;13988;52.446;13.280;2023-06-19T09:49:50;7.63;;;6.55;;
26261;SDS011;13988;52.446;13.280;2023-06-19T09:52:19;8.40;;;7.03;;
26261;SDS011;13988;52.446;13.280;2023-06-19T09:54:47;7.10;;;6.35;;
26261;SDS011;13988;52.446;13.280;2023-06-19T09:57:17;7.72;;;6.50;;
26261;SDS011;13988;52.446;13.280;2023-06-19T09:59:44;7.57;;;6.40;;
26261;SDS011;13988;52.446;13.280;2023-06-19T10:02:14;7.07;;;6.38;;
26261;SDS011;13988;52.446;13.280;2023-06-19T10:04:44;6.97;;;6.30;;
26261;SDS011;13988;52.446;13.280;2023-06-19T10:07:18;7.72;;;6.70;;
26261;SDS011;13988;52.446;13.280;2023-06-19T10:12:52;10.25;;;7.50;;
26261;SDS011;13988;52.446;13.280;2023-06-19T10:17:48;7.05;;;6.38;;
26261;SDS011;13988;52.446;13.280;2023-06-19T10:20:24;9.45;;;6.70;;
26261;SDS011;13988;52.446;13.280;2023-06-19T10:22:57;10.15;;;7.03;;
26261;SDS011;13988;52.446;13.280;2023-06-19T10:25:24;8.00;;;7.03;;
26261;SDS011;13988;52.446;13.280;2023-06-19T10:27:52;7.10;;;6.40;;
26261;SDS011;13988;52.446;13.280;2023-06-19T10:30:19;8.43;;;6.65;;
26261;SDS011;13988;52.446;13.280;2023-06-19T10:32:46;8.43;;;7.13;;
26261;SDS011;13988;52.446;13.280;2023-06-19T10:35:13;9.75;;;7.43;;
26261;SDS011;13988;52.446;13.280;2023-06-19T10:37:40;8.40;;;6.85;;
26261;SDS011;13988;52.446;13.280;2023-06-19T10:40:06;7.72;;;6.93;;
26261;SDS011;13988;52.446;13.280;2023-06-19T10:42:38;8.13;;;7.13;;
26261;SDS011;13988;52.446;13.280;2023-06-19T10:45:05;9.10;;;6.70;;
26261;SDS011;13988;52.446;13.280;2023-06-19T10:47:32;8.68;;;6.72;;
26261;SDS011;13988;52.446;13.280;2023-06-19T10:49:58;9.77;;;6.85;;
26261;SDS011;13988;52.446;13.280;2023-06-19T10:52:24;7.05;;;6.32;;
26261;SDS011;13988;52.446;13.280;2023-06-19T10:54:53;7.65;;;6.85;;
26261;SDS011;13988;52.446;13.280;2023-06-19T10:57:26;10.00;;;6.30;;
26261;SDS011;13988;52.446;13.280;2023-06-19T10:59:52;6.57;;;5.97;;
26261;SDS011;13988;52.446;13.280;2023-06-19T11:02:18;6.55;;;5.85;;
26261;SDS011;13988;52.446;13.280;2023-06-19T11:04:44;7.90;;;6.50;;
26261;SDS011;13988;52.446;13.280;2023-06-19T11:07:09;11.10;;;6.40;;
26261;SDS011;13988;52.446;13.280;2023-06-19T11:09:35;7.43;;;6.68;;
26261;SDS011;13988;52.446;13.280;2023-06-19T11:12:01;9.07;;;6.47;;
26261;SDS011;13988;52.446;13.280;2023-06-19T11:14:29;6.65;;;6.05;;
26261;SDS011;13988;52.446;13.280;2023-06-19T11:16:55;8.02;;;6.80;;
26261;SDS011;13988;52.446;13.280;2023-06-19T11:19:21;6.97;;;6.03;;
26261;SDS011;13988;52.446;13.280;2023-06-19T11:21:51;7.45;;;6.20;;
26261;SDS011;13988;52.446;13.280;2023-06-19T11:24:18;7.40;;;5.70;;
26261;SDS011;13988;52.446;13.280;2023-06-19T11:26:45;6.57;;;5.90;;
26261;SDS011;13988;52.446;13.280;2023-06-19T11:29:18;7.60;;;5.57;;
26261;SDS011;13988;52.446;13.280;2023-06-19T11:31:46;6.70;;;5.72;;
26261;SDS011;13988;52.446;13.280;2023-06-19T11:34:13;6.93;;;6.00;;
26261;SDS011;13988;52.446;13.280;2023-06-19T11:36:39;7.18;;;6.20;;
26261;SDS011;13988;52.446;13.280;2023-06-19T11:39:09;7.53;;;5.22;;
26261;SDS011;13988;52.446;13.280;2023-06-19T11:41:36;6.72;;;6.05;;
26261;SDS011;13988;52.446;13.280;2023-06-19T11:44:06;9.18;;;6.22;;
26261;SDS011;13988;52.446;13.280;2023-06-19T11:46:34;6.38;;;5.65;;
26261;SDS011;13988;52.446;13.280;2023-06-19T11:54:01;8.10;;;6.13;;
26261;SDS011;13988;52.446;13.280;2023-06-19T11:56:29;7.43;;;5.80;;
26261;SDS011;13988;52.446;13.280;2023-06-19T11:58:54;7.47;;;5.47;;
26261;SDS011;13988;52.446;13.280;2023-06-19T12:01:20;6.50;;;5.82;;
26261;SDS011;13988;52.446;13.280;2023-06-19T12:03:46;7.35;;;5.80;;
26261;SDS011;13988;52.446;13.280;2023-06-19T12:06:11;6.65;;;5.43;;
26261;SDS011;13988;52.446;13.280;2023-06-19T12:08:37;6.80;;;5.68;;
26261;SDS011;13988;52.446;13.280;2023-06-19T12:11:03;8.73;;;5.53;;
26261;SDS011;13988;52.446;13.280;2023-06-19T12:13:30;6.18;;;5.57;;
26261;SDS011;13988;52.446;13.280;2023-06-19T12:15:55;9.65;;;5.97;;
26261;SDS011;13988;52.446;13.280;2023-06-19T12:18:21;6.82;;;5.72;;
26261;SDS011;13988;52.446;13.280;2023-06-19T12:20:47;5.75;;;5.18;;
26261;SDS011;13988;52.446;13.280;2023-06-19T12:23:13;6.72;;;5.82;;
26261;SDS011;13988;52.446;13.280;2023-06-19T12:25:38;5.68;;;5.00;;
26261;SDS011;13988;52.446;13.280;2023-06-19T12:28:04;6.28;;;5.28;;
26261;SDS011;13988;52.446;13.280;2023-06-19T12:30:32;5.38;;;4.85;;
26261;SDS011;13988;52.446;13.280;2023-06-19T12:32:59;5.72;;;4.70;;
26261;SDS011;13988;52.446;13.280;2023-06-19T12:35:24;7.78;;;5.15;;
26261;SDS011;13988;52.446;13.280;2023-06-19T12:37:51;5.32;;;4.82;;
26261;SDS011;13988;52.446;13.280;2023-06-19T12:40:17;5.40;;;4.88;;
26261;SDS011;13988;52.446;13.280;2023-06-19T12:42:43;7.63;;;5.68;;
26261;SDS011;13988;52.446;13.280;2023-06-19T12:45:09;5.80;;;4.53;;
26261;SDS011;13988;52.446;13.280;2023-06-19T12:47:35;5.57;;;4.97;;
26261;SDS011;13988;52.446;13.280;2023-06-19T12:50:01;5.40;;;4.90;;
26261;SDS011;13988;52.446;13.280;2023-06-19T12:52:27;6.40;;;5.15;;
26261;SDS011;13988;52.446;13.280;2023-06-19T12:54:53;6.63;;;5.20;;
26261;SDS011;13988;52.446;13.280;2023-06-19T12:57:19;6.60;;;5.55;;
26261;SDS011;13988;52.446;13.280;2023-06-19T12:59:44;6.40;;;5.72;;
26261;SDS011;13988;52.446;13.280;2023-06-19T13:02:10;6.03;;;5.45;;
26261;SDS011;13988;52.446;13.280;2023-06-19T13:04:35;6.18;;;5.53;;
26261;SDS011;13988;52.446;13.280;2023-06-19T13:07:03;6.40;;;5.80;;
26261;SDS011;13988;52.446;13.280;2023-06-19T13:09:29;6.60;;;6.00;;
26261;SDS011;13988;52.446;13.280;2023-06-19T13:11:55;6.15;;;5.50;;
26261;SDS011;13988;52.446;13.280;2023-06-19T13:14:21;6.13;;;5.55;;
26261;SDS011;13988;52.446;13.280;2023-06-19T13:16:46;12.48;;;6.03;;
26261;SDS011;13988;52.446;13.280;2023-06-19T13:19:13;8.80;;;5.65;;
26261;SDS011;13988;52.446;13.280;2023-06-19T13:21:40;7.40;;;6.60;;
26261;SDS011;13988;52.446;13.280;2023-06-19T13:24:05;6.30;;;5.70;;
26261;SDS011;13988;52.446;13.280;2023-06-19T13:26:31;6.32;;;5.72;;
26261;SDS011;13988;52.446;13.280;2023-06-19T13:28:57;6.63;;;5.93;;
26261;SDS011;13988;52.446;13.280;2023-06-19T13:31:24;6.80;;;6.10;;
26261;SDS011;13988;52.446;13.280;2023-06-19T13:33:50;7.97;;;6.03;;
26261;SDS011;13988;52.446;13.280;2023-06-19T13:36:16;7.57;;;6.35;;
26261;SDS011;13988;52.446;13.280;2023-06-19T13:38:43;6.35;;;5.45;;
26261;SDS011;13988;52.446;13.280;2023-06-19T13:41:09;8.48;;;6.50;;
26261;SDS011;13988;52.446;13.280;2023-06-19T13:43:35;6.25;;;5.63;;
26261;SDS011;13988;52.446;13.280;2023-06-19T13:46:01;9.10;;;6.90;;
26261;SDS011;13988;52.446;13.280;2023-06-19T13:48:29;6.53;;;5.90;;
26261;SDS011;13988;52.446;13.280;2023-06-19T13:50:55;8.68;;;6.40;;
26261;SDS011;13988;52.446;13.280;2023-06-19T13:53:22;6.80;;;6.13;;
26261;SDS011;13988;52.446;13.280;2023-06-19T13:55:48;7.18;;;6.43;;
26261;SDS011;13988;52.446;13.280;2023-06-19T13:58:14;7.50;;;6.60;;
26261;SDS011;13988;52.446;13.280;2023-06-19T14:00:40;6.60;;;5.75;;
26261;SDS011;13988;52.446;13.280;2023-06-19T14:03:05;9.93;;;6.72;;
26261;SDS011;13988;52.446;13.280;2023-06-19T14:05:32;6.82;;;6.18;;
26261;SDS011;13988;52.446;13.280;2023-06-19T14:07:58;9.30;;;6.60;;
26261;SDS011;13988;52.446;13.280;2023-06-19T14:10:24;7.32;;;6.63;;
26261;SDS011;13988;52.446;13.280;2023-06-19T14:12:50;6.10;;;5.50;;
26261;SDS011;13988;52.446;13.280;2023-06-19T14:15:16;7.03;;;5.70;;
26261;SDS011;13988;52.446;13.280;2023-06-19T14:17:41;7.65;;;5.97;;
26261;SDS011;13988;52.446;13.280;2023-06-19T14:20:08;6.55;;;5.78;;
26261;SDS011;13988;52.446;13.280;2023-06-19T14:22:36;6.32;;;5.72;;
26261;SDS011;13988;52.446;13.280;2023-06-19T14:25:01;6.45;;;5.70;;
26261;SDS011;13988;52.446;13.280;2023-06-19T14:27:27;5.80;;;5.30;;
26261;SDS011;13988;52.446;13.280;2023-06-19T14:29:54;6.57;;;5.93;;
26261;SDS011;13988;52.446;13.280;2023-06-19T14:32:21;5.95;;;5.43;;
26261;SDS011;13988;52.446;13.280;2023-06-19T14:34:48;6.45;;;5.78;;
26261;SDS011;13988;52.446;13.280;2023-06-19T14:37:13;11.48;;;6.10;;
26261;SDS011;13988;52.446;13.280;2023-06-19T14:39:39;5.95;;;5.35;;
26261;SDS011;13988;52.446;13.280;2023-06-19T14:42:05;6.55;;;5.93;;
26261;SDS011;13988;52.446;13.280;2023-06-19T14:44:31;6.35;;;5.65;;
26261;SDS011;13988;52.446;13.280;2023-06-19T14:47:00;8.05;;;5.95;;